Time;durP1;ratioP1;P1;durP2;ratioP2;P2;SDS_P1;SDS_P2;PMS_P1;PMS_P2;Temp;Humidity;BMP_temperature;BMP_pressure;BME280_temperature;BME280_humidity;BME280_pressure;Samples;Min_cycle;Max_cycle;Signal;HPM_P1;HPM_P2
2022/01/09 00:01:42;;;;;;;1.37;0.63;;;5.20;99.90;;;;;;5015870;28;20185;-73
2022/01/09 00:04:08;;;;;;;0.10;0.10;;;5.20;99.90;;;;;;5016161;28;20570;-73
2022/01/09 00:06:34;;;;;;;0.00;0.00;;;5.20;99.90;;;;;;5033649;28;20180;-73
2022/01/09 00:08:59;;;;;;;0.00;0.00;;;5.20;99.90;;;;;;5033690;28;20246;-73
2022/01/09 00:11:26;;;;;;;0.00;0.00;;;5.20;99.90;;;;;;5026730;28;20174;-73
2022/01/09 00:13:56;;;;;;;0.00;0.00;;;5.30;99.90;;;;;;5028483;28;20288;-73
2022/01/09 00:16:24;;;;;;;0.20;0.20;;;5.30;99.90;;;;;;5033850;28;20181;-73
2022/01/09 00:18:51;;;;;;;0.00;0.00;;;5.30;99.90;;;;;;5033666;28;20192;-73
2022/01/09 00:21:18;;;;;;;0.00;0.00;;;5.30;99.90;;;;;;5033914;28;20533;-73
2022/01/09 00:23:45;;;;;;;0.00;0.00;;;5.20;99.90;;;;;;5033372;28;20193;-73
2022/01/09 00:26:11;;;;;;;0.23;0.23;;;5.20;99.90;;;;;;5033538;28;20675;-71
2022/01/09 00:28:36;;;;;;;0.00;0.00;;;5.20;99.90;;;;;;5033341;28;20181;-72
2022/01/09 00:31:03;;;;;;;0.00;0.00;;;5.20;99.90;;;;;;5033927;28;20671;-72
2022/01/09 00:33:28;;;;;;;0.00;0.00;;;5.20;99.90;;;;;;5033022;28;20212;-72
2022/01/09 00:35:54;;;;;;;0.00;0.00;;;5.10;99.90;;;;;;5033075;28;20284;-73
2022/01/09 00:38:19;;;;;;;0.00;0.00;;;5.10;99.90;;;;;;5033347;28;20221;-72
2022/01/09 00:40:45;;;;;;;0.00;0.00;;;5.00;99.90;;;;;;5033264;28;20672;-72
2022/01/09 00:43:12;;;;;;;0.00;0.00;;;5.10;99.90;;;;;;5032983;28;20276;-73
2022/01/09 00:45:39;;;;;;;0.20;0.20;;;5.10;99.90;;;;;;5056563;23;20267;-72
2022/01/09 00:48:05;;;;;;;0.00;0.00;;;5.10;99.90;;;;;;5055318;28;20674;-71
2022/01/09 00:50:31;;;;;;;0.00;0.00;;;5.10;99.90;;;;;;5055690;28;20255;-72
2022/01/09 00:52:57;;;;;;;0.10;0.10;;;5.10;99.90;;;;;;5054818;28;20810;-70
2022/01/09 00:55:22;;;;;;;0.00;0.00;;;5.00;99.90;;;;;;5044863;28;20235;-72
2022/01/09 00:57:48;;;;;;;0.00;0.00;;;5.00;99.90;;;;;;5035263;28;20667;-72
2022/01/09 01:00:14;;;;;;;0.00;0.00;;;5.00;99.90;;;;;;5035602;28;20264;-72
2022/01/09 01:02:41;;;;;;;0.00;0.00;;;5.00;99.90;;;;;;5034458;28;20234;-72
2022/01/09 01:05:07;;;;;;;0.10;0.10;;;4.90;99.90;;;;;;5034359;28;20693;-72
2022/01/09 01:07:33;;;;;;;0.00;0.00;;;4.90;99.90;;;;;;5034340;28;20656;-72
2022/01/09 01:09:58;;;;;;;0.00;0.00;;;4.90;99.90;;;;;;5035764;28;20200;-72
2022/01/09 01:12:29;;;;;;;0.00;0.00;;;4.80;99.90;;;;;;5021491;28;20665;-71
2022/01/09 01:14:55;;;;;;;0.00;0.00;;;4.80;99.90;;;;;;5034708;28;20682;-71
2022/01/09 01:17:21;;;;;;;0.00;0.00;;;4.80;99.90;;;;;;5034487;28;20192;-72
2022/01/09 01:19:47;;;;;;;0.00;0.00;;;4.80;99.90;;;;;;5035529;28;20182;-71
2022/01/09 01:22:14;;;;;;;0.00;0.00;;;4.80;99.90;;;;;;5034931;28;20194;-71
2022/01/09 01:24:40;;;;;;;0.00;0.00;;;4.80;99.90;;;;;;5033929;28;20711;-71
2022/01/09 01:27:07;;;;;;;0.00;0.00;;;4.80;99.90;;;;;;5035243;28;20272;-71
2022/01/09 01:29:34;;;;;;;0.00;0.00;;;4.80;99.90;;;;;;5035799;28;20671;-71
2022/01/09 01:31:59;;;;;;;0.00;0.00;;;4.80;99.90;;;;;;5035173;28;20182;-73
2022/01/09 01:34:25;;;;;;;0.00;0.00;;;4.80;99.90;;;;;;5035446;28;20824;-73
2022/01/09 01:36:50;;;;;;;0.00;0.00;;;4.80;99.90;;;;;;5034928;28;20178;-73
2022/01/09 01:39:16;;;;;;;0.00;0.00;;;4.80;99.90;;;;;;5034949;28;20231;-73
2022/01/09 01:41:41;;;;;;;0.00;0.00;;;4.90;99.90;;;;;;5034407;28;20239;-73
2022/01/09 01:44:10;;;;;;;0.00;0.00;;;4.90;99.90;;;;;;5033905;28;20581;-72
2022/01/09 01:46:37;;;;;;;0.20;0.17;;;4.90;99.90;;;;;;5033908;28;20288;-73
2022/01/09 01:49:03;;;;;;;0.00;0.00;;;5.00;99.90;;;;;;5035010;28;20819;-73
2022/01/09 01:51:29;;;;;;;0.00;0.00;;;5.10;99.90;;;;;;5034654;28;20665;-72
2022/01/09 01:53:56;;;;;;;0.37;0.37;;;5.10;99.90;;;;;;5034949;28;20212;-73
2022/01/09 01:56:22;;;;;;;0.00;0.00;;;5.20;99.90;;;;;;5032986;28;20201;-74
2022/01/09 01:58:49;;;;;;;0.00;0.00;;;5.30;99.90;;;;;;5034724;28;20188;-74
2022/01/09 02:01:15;;;;;;;0.53;0.30;;;5.40;99.90;;;;;;5035161;28;20177;-73
2022/01/09 02:03:41;;;;;;;0.20;0.20;;;5.60;99.90;;;;;;5033748;28;20185;-73
2022/01/09 02:06:07;;;;;;;0.10;0.10;;;5.50;99.90;;;;;;5033667;28;20198;-74
2022/01/09 02:08:33;;;;;;;0.30;0.30;;;5.30;99.90;;;;;;5035343;28;20738;-74
2022/01/09 02:10:58;;;;;;;1.50;0.73;;;5.30;99.90;;;;;;5032058;28;20178;-73
2022/01/09 02:13:24;;;;;;;0.00;0.00;;;5.10;99.90;;;;;;5025289;28;20288;-74
2022/01/09 02:15:50;;;;;;;0.00;0.00;;;5.00;99.90;;;;;;5033935;28;20198;-73
2022/01/09 02:18:19;;;;;;;0.00;0.00;;;5.00;99.90;;;;;;5033700;28;20235;-73
2022/01/09 02:20:45;;;;;;;1.90;0.30;;;4.80;99.90;;;;;;5034678;28;20238;-73
2022/01/09 02:23:14;;;;;;;0.00;0.00;;;4.60;99.90;;;;;;5033101;28;20189;-74
2022/01/09 02:25:40;;;;;;;0.07;0.07;;;4.60;99.90;;;;;;5033223;28;20276;-73
2022/01/09 02:28:07;;;;;;;0.70;0.20;;;4.50;99.90;;;;;;5032726;28;20185;-73
2022/01/09 02:30:34;;;;;;;0.93;0.10;;;4.50;99.90;;;;;;5034056;28;20653;-73
2022/01/09 02:33:01;;;;;;;0.33;0.30;;;4.40;99.90;;;;;;5034405;28;20209;-73
2022/01/09 02:35:27;;;;;;;0.37;0.37;;;4.40;99.90;;;;;;5033144;28;20210;-73
2022/01/09 02:37:52;;;;;;;0.00;0.00;;;4.40;99.90;;;;;;5033741;28;20185;-72
2022/01/09 02:40:18;;;;;;;0.50;0.50;;;4.30;99.90;;;;;;5032264;28;20232;-73
2022/01/09 02:42:44;;;;;;;0.10;0.10;;;4.30;99.90;;;;;;5031537;28;20239;-73
2022/01/09 02:45:10;;;;;;;0.03;0.03;;;4.30;99.90;;;;;;5033089;28;20227;-73
2022/01/09 02:47:37;;;;;;;0.20;0.20;;;4.30;99.90;;;;;;5033795;28;20185;-73
2022/01/09 02:50:41;;;;;;;0.23;0.17;;;4.40;99.90;;;;;;5032560;28;20196;-74
2022/01/09 02:53:01;;;;;;;2.17;1.20;;;4.40;99.90;;;;;;5030916;28;20231;-73
2022/01/09 02:55:29;;;;;;;0.40;0.40;;;4.40;99.90;;;;;;5033806;28;20197;-73
2022/01/09 02:57:58;;;;;;;0.00;0.00;;;4.50;99.90;;;;;;5033191;28;20227;-73
2022/01/09 03:00:33;;;;;;;0.10;0.10;;;4.50;99.90;;;;;;5033786;28;20193;-73
2022/01/09 03:02:59;;;;;;;0.00;0.00;;;4.50;99.90;;;;;;5033662;28;20193;-74
2022/01/09 03:05:25;;;;;;;1.50;1.47;;;4.60;99.90;;;;;;5034316;28;20324;-73
2022/01/09 03:07:51;;;;;;;0.10;0.10;;;4.60;99.90;;;;;;5032339;28;20193;-73
2022/01/09 03:10:18;;;;;;;0.67;0.67;;;4.60;99.90;;;;;;5033663;28;20181;-73
2022/01/09 03:12:45;;;;;;;0.83;0.83;;;4.70;99.90;;;;;;5020805;28;20197;-73
2022/01/09 03:15:11;;;;;;;0.40;0.40;;;4.70;99.90;;;;;;5033016;28;20209;-73
2022/01/09 03:17:38;;;;;;;0.27;0.27;;;4.70;99.90;;;;;;5033654;28;20185;-73
2022/01/09 03:20:07;;;;;;;0.83;0.83;;;4.70;99.90;;;;;;5033628;28;20232;-73
2022/01/09 03:22:33;;;;;;;0.10;0.10;;;4.70;99.90;;;;;;5031256;28;20189;-73
2022/01/09 03:24:58;;;;;;;0.83;0.77;;;4.70;99.90;;;;;;5033270;28;20208;-73
2022/01/09 03:27:24;;;;;;;0.20;0.20;;;4.70;99.90;;;;;;5031524;28;20185;-73
2022/01/09 03:29:50;;;;;;;0.10;0.10;;;4.70;99.90;;;;;;5033535;28;20191;-74
2022/01/09 03:32:15;;;;;;;0.73;0.73;;;4.70;99.90;;;;;;5033170;28;20198;-73
2022/01/09 03:34:41;;;;;;;0.00;0.00;;;4.70;99.90;;;;;;5033674;28;20205;-74
2022/01/09 03:37:07;;;;;;;0.43;0.43;;;4.70;99.90;;;;;;5033510;28;20538;-73
2022/01/09 03:39:33;;;;;;;0.97;0.67;;;4.70;99.90;;;;;;5037071;28;20185;-74
2022/01/09 03:41:59;;;;;;;2.57;2.37;;;4.70;99.90;;;;;;5037596;28;20185;-73
2022/01/09 03:44:26;;;;;;;0.30;0.30;;;4.60;99.90;;;;;;5039066;28;20541;-74
2022/01/09 03:46:52;;;;;;;0.43;0.43;;;4.70;99.90;;;;;;5036727;28;20181;-73
2022/01/09 03:49:17;;;;;;;0.97;0.97;;;4.70;99.90;;;;;;5018285;28;20198;-74
2022/01/09 03:51:44;;;;;;;1.17;1.07;;;4.70;99.90;;;;;;5035993;28;20174;-73
2022/01/09 03:54:10;;;;;;;10.07;0.63;;;4.70;99.90;;;;;;5019251;28;20220;-73
2022/01/09 03:56:36;;;;;;;4.40;2.57;;;4.70;99.90;;;;;;5018928;28;20185;-73
2022/01/09 03:59:02;;;;;;;20.50;1.60;;;4.80;99.90;;;;;;5035726;28;20544;-73
2022/01/09 04:01:28;;;;;;;6.43;0.93;;;4.80;99.90;;;;;;5035824;28;20190;-73
2022/01/09 04:03:53;;;;;;;4.63;2.43;;;4.90;99.90;;;;;;5017929;28;20185;-73
2022/01/09 04:06:19;;;;;;;6.20;2.20;;;4.90;99.90;;;;;;5035483;28;20293;-73
2022/01/09 04:08:45;;;;;;;0.23;0.23;;;5.00;99.90;;;;;;5036521;28;20189;-74
2022/01/09 04:11:14;;;;;;;4.23;2.30;;;5.10;99.90;;;;;;5032114;28;20186;-73
2022/01/09 04:13:39;;;;;;;2.47;1.43;;;5.00;99.90;;;;;;5029907;28;20205;-73
2022/01/09 04:16:05;;;;;;;2.17;2.07;;;5.10;99.90;;;;;;5038382;28;20284;-73
2022/01/09 04:18:31;;;;;;;3.03;2.77;;;5.10;99.90;;;;;;5038356;28;20181;-73
2022/01/09 04:20:58;;;;;;;0.60;0.33;;;5.10;99.90;;;;;;5038316;28;20228;-73
2022/01/09 04:23:24;;;;;;;6.17;2.83;;;5.10;99.90;;;;;;5037560;28;20272;-74
2022/01/09 04:25:50;;;;;;;0.97;0.97;;;5.10;99.90;;;;;;5020121;28;20244;-73
2022/01/09 04:28:16;;;;;;;0.77;0.77;;;5.10;99.90;;;;;;5038174;28;20182;-73
2022/01/09 04:30:42;;;;;;;2.27;1.10;;;5.10;99.90;;;;;;5020478;28;20564;-73
2022/01/09 04:33:11;;;;;;;0.10;0.10;;;5.10;99.90;;;;;;5018482;28;20212;-73
2022/01/09 04:35:38;;;;;;;0.73;0.73;;;5.20;99.90;;;;;;5017892;28;20283;-73
2022/01/09 04:38:04;;;;;;;2.17;1.30;;;5.10;99.90;;;;;;5018382;28;20193;-73
2022/01/09 04:40:29;;;;;;;8.00;2.63;;;5.10;99.90;;;;;;5017972;28;20197;-74
2022/01/09 04:42:59;;;;;;;2.00;0.77;;;5.20;99.90;;;;;;5035757;28;20558;-73
2022/01/09 04:45:27;;;;;;;1.27;1.17;;;5.20;99.90;;;;;;5035318;28;20723;-73
2022/01/09 04:47:55;;;;;;;0.67;0.63;;;5.20;99.90;;;;;;5035831;28;20181;-73
2022/01/09 04:50:27;;;;;;;2.10;1.53;;;5.20;99.90;;;;;;5017128;28;20220;-73
2022/01/09 04:52:59;;;;;;;9.20;1.70;;;5.10;99.90;;;;;;5017243;28;20212;-73
2022/01/09 04:55:25;;;;;;;1.13;1.13;;;5.20;99.90;;;;;;5018125;28;20883;-73
2022/01/09 04:57:51;;;;;;;0.33;0.33;;;5.10;99.90;;;;;;5036268;28;20174;-73
2022/01/09 05:00:17;;;;;;;9.93;0.83;;;5.10;99.90;;;;;;5018738;28;20192;-73
2022/01/09 05:02:42;;;;;;;2.93;2.73;;;5.10;99.90;;;;;;5037591;28;20208;-72
2022/01/09 05:05:09;;;;;;;1.40;0.40;;;5.10;99.90;;;;;;5038871;28;20202;-73
2022/01/09 05:07:35;;;;;;;0.10;0.10;;;5.10;99.90;;;;;;5039398;28;20667;-72
2022/01/09 05:10:03;;;;;;;0.63;0.63;;;5.10;99.90;;;;;;5012138;28;20285;-72
2022/01/09 05:12:28;;;;;;;0.33;0.33;;;5.20;99.90;;;;;;5016151;28;20295;-73
2022/01/09 05:14:54;;;;;;;0.17;0.17;;;5.20;99.90;;;;;;5038363;28;20696;-72
2022/01/09 05:17:19;;;;;;;2.80;1.53;;;5.10;99.90;;;;;;5038070;28;20553;-71
2022/01/09 05:19:46;;;;;;;3.30;2.90;;;5.10;99.90;;;;;;5035841;28;20185;-73
2022/01/09 05:22:12;;;;;;;0.00;0.00;;;5.20;99.90;;;;;;5034711;28;20189;-73
2022/01/09 05:24:38;;;;;;;2.00;1.60;;;5.20;99.90;;;;;;5034596;28;20288;-73
2022/01/09 05:27:04;;;;;;;6.10;1.10;;;5.10;99.90;;;;;;5035275;28;20182;-73
2022/01/09 05:29:29;;;;;;;0.10;0.10;;;5.10;99.90;;;;;;5035441;28;20182;-73
2022/01/09 05:31:55;;;;;;;0.73;0.73;;;5.10;99.90;;;;;;5035839;28;20211;-73
2022/01/09 05:34:21;;;;;;;6.07;2.57;;;5.10;99.90;;;;;;5035710;28;20223;-73
2022/01/09 05:36:47;;;;;;;0.40;0.40;;;5.10;99.90;;;;;;5037062;28;20177;-74
2022/01/09 05:39:12;;;;;;;1.80;0.23;;;5.10;99.90;;;;;;5039440;28;20181;-74
2022/01/09 05:41:40;;;;;;;1.60;1.60;;;5.10;99.90;;;;;;5038592;28;20197;-74
2022/01/09 05:44:05;;;;;;;0.10;0.10;;;5.10;99.90;;;;;;5035927;28;20186;-73
2022/01/09 05:46:31;;;;;;;0.20;0.20;;;5.10;99.90;;;;;;5017812;28;20216;-73
2022/01/09 05:48:56;;;;;;;0.30;0.30;;;5.10;99.90;;;;;;5035717;28;20240;-73
2022/01/09 05:51:22;;;;;;;1.20;1.20;;;5.10;99.90;;;;;;5034970;28;20194;-73
2022/01/09 05:53:47;;;;;;;3.80;1.30;;;5.10;99.90;;;;;;5035881;28;20605;-73
2022/01/09 05:56:13;;;;;;;1.50;0.77;;;5.10;99.90;;;;;;5036939;28;20201;-73
2022/01/09 05:58:39;;;;;;;2.53;1.70;;;5.10;99.90;;;;;;5038272;28;20185;-73
2022/01/09 06:01:06;;;;;;;0.37;0.37;;;5.10;99.90;;;;;;5038811;28;20186;-73
2022/01/09 06:03:32;;;;;;;0.60;0.60;;;5.00;99.90;;;;;;5040093;28;20182;-73
2022/01/09 06:05:57;;;;;;;0.60;0.60;;;5.10;99.90;;;;;;5042715;28;20209;-74
2022/01/09 06:08:23;;;;;;;1.50;1.40;;;5.00;99.90;;;;;;5043999;28;20189;-73
2022/01/09 06:10:49;;;;;;;0.17;0.17;;;5.00;99.90;;;;;;5018137;28;20190;-74
2022/01/09 06:13:14;;;;;;;0.87;0.47;;;4.90;99.90;;;;;;5017001;28;20205;-74
2022/01/09 06:15:40;;;;;;;0.00;0.00;;;4.90;99.90;;;;;;5036570;28;20212;-75
2022/01/09 06:18:06;;;;;;;0.33;0.20;;;4.90;99.90;;;;;;5037326;28;20209;-74
2022/01/09 06:20:31;;;;;;;0.63;0.63;;;4.90;99.90;;;;;;5039614;28;20249;-74
2022/01/09 06:22:57;;;;;;;0.20;0.20;;;4.90;99.90;;;;;;5044668;28;20193;-73
2022/01/09 06:25:23;;;;;;;0.57;0.57;;;4.90;99.90;;;;;;5025728;28;20193;-74
2022/01/09 06:27:48;;;;;;;1.50;1.47;;;4.90;99.90;;;;;;5006737;28;20186;-73
2022/01/09 06:30:14;;;;;;;1.80;1.70;;;4.90;99.90;;;;;;5025729;28;20534;-73
2022/01/09 06:32:40;;;;;;;0.50;0.50;;;4.90;99.90;;;;;;5024703;28;20573;-73
2022/01/09 06:35:06;;;;;;;3.17;1.43;;;4.90;99.90;;;;;;5024911;28;20206;-73
2022/01/09 06:37:33;;;;;;;1.83;0.93;;;4.90;99.90;;;;;;5006561;28;20186;-75
2022/01/09 06:39:59;;;;;;;0.00;0.00;;;4.90;99.90;;;;;;5037123;28;20186;-74
2022/01/09 06:42:25;;;;;;;0.60;0.60;;;4.90;99.90;;;;;;5041719;28;20185;-73
2022/01/09 06:47:16;;;;;;;0.30;0.20;;;5.00;99.90;;;;;;5081691;22;20240;-73
2022/01/09 06:49:41;;;;;;;0.87;0.87;;;4.90;99.90;;;;;;5070961;28;20177;-73
2022/01/09 06:52:07;;;;;;;1.20;1.10;;;4.90;99.90;;;;;;5071141;28;20186;-73
2022/01/09 06:54:32;;;;;;;0.27;0.27;;;4.90;99.90;;;;;;5071176;28;20199;-73
2022/01/09 06:56:58;;;;;;;0.17;0.17;;;4.90;99.90;;;;;;5053429;28;20729;-73
2022/01/09 06:59:23;;;;;;;0.07;0.07;;;4.90;99.90;;;;;;5033200;28;20177;-73
2022/01/09 07:01:50;;;;;;;0.40;0.40;;;4.90;99.90;;;;;;5050869;28;20544;-73
2022/01/09 07:04:16;;;;;;;0.30;0.30;;;4.80;99.90;;;;;;5050912;28;20630;-73
2022/01/09 07:06:41;;;;;;;0.00;0.00;;;4.80;99.90;;;;;;5050915;28;20196;-73
2022/01/09 07:09:07;;;;;;;0.20;0.20;;;4.90;99.90;;;;;;5051263;28;20181;-72
2022/01/09 07:11:32;;;;;;;0.40;0.40;;;4.90;99.90;;;;;;5042953;28;20185;-73
2022/01/09 07:13:58;;;;;;;0.00;0.00;;;4.90;99.90;;;;;;5048827;28;20291;-73
2022/01/09 07:16:24;;;;;;;7.07;1.50;;;4.90;99.90;;;;;;5054429;28;20227;-73
2022/01/09 07:18:49;;;;;;;0.10;0.10;;;4.80;99.90;;;;;;5054679;28;20192;-74
2022/01/09 07:21:15;;;;;;;0.20;0.20;;;4.80;99.90;;;;;;5037067;28;20640;-74
2022/01/09 07:23:40;;;;;;;0.60;0.60;;;4.80;99.90;;;;;;5054857;28;20240;-74
2022/01/09 07:26:06;;;;;;;0.63;0.63;;;4.80;99.90;;;;;;5055528;28;20197;-74
2022/01/09 07:28:32;;;;;;;0.73;0.73;;;4.80;99.90;;;;;;5054592;28;20270;-74
2022/01/09 07:30:58;;;;;;;0.60;0.60;;;4.80;99.90;;;;;;5037078;28;20185;-74
2022/01/09 07:33:24;;;;;;;0.33;0.33;;;4.80;99.90;;;;;;5054092;28;20197;-74
2022/01/09 07:35:49;;;;;;;0.10;0.10;;;4.80;99.90;;;;;;5056744;28;20567;-74
2022/01/09 07:38:15;;;;;;;0.20;0.20;;;4.80;99.90;;;;;;5054848;28;20193;-72
2022/01/09 07:40:40;;;;;;;1.70;1.53;;;4.90;99.90;;;;;;5054565;28;20176;-73
2022/01/09 07:43:06;;;;;;;1.30;1.20;;;4.80;99.90;;;;;;5054262;28;20648;-73
2022/01/09 07:45:32;;;;;;;7.13;0.97;;;4.80;99.90;;;;;;5053948;28;20209;-73
2022/01/09 07:48:00;;;;;;;0.00;0.00;;;4.80;99.90;;;;;;5054320;28;20252;-72
2022/01/09 07:50:27;;;;;;;0.60;0.60;;;4.80;99.90;;;;;;5054264;28;20197;-72
2022/01/09 07:52:54;;;;;;;0.30;0.30;;;4.80;99.90;;;;;;5053752;28;20203;-72
2022/01/09 07:55:20;;;;;;;0.10;0.10;;;4.80;99.90;;;;;;5054054;28;20279;-73
2022/01/09 07:57:47;;;;;;;0.00;0.00;;;4.80;99.90;;;;;;5036289;28;20375;-73
2022/01/09 08:00:13;;;;;;;4.73;1.60;;;4.80;99.90;;;;;;5054148;28;20192;-74
2022/01/09 08:02:40;;;;;;;0.00;0.00;;;4.80;99.90;;;;;;5035800;28;20188;-73
2022/01/09 08:05:06;;;;;;;0.03;0.03;;;4.80;99.90;;;;;;5053971;28;20290;-74
2022/01/09 08:07:32;;;;;;;0.50;0.50;;;4.70;99.90;;;;;;5053404;28;20606;-74
2022/01/09 08:09:57;;;;;;;0.00;0.00;;;4.60;99.90;;;;;;5054072;28;20652;-74
2022/01/09 08:12:23;;;;;;;0.20;0.20;;;4.60;99.90;;;;;;5040824;28;20684;-74
2022/01/09 08:14:48;;;;;;;0.20;0.20;;;4.50;99.90;;;;;;5054139;28;20283;-74
2022/01/09 08:17:14;;;;;;;0.10;0.10;;;4.50;99.90;;;;;;5053535;28;20204;-74
2022/01/09 08:19:40;;;;;;;0.10;0.10;;;4.50;99.90;;;;;;5053508;28;20279;-74
2022/01/09 08:22:07;;;;;;;0.53;0.40;;;4.50;99.90;;;;;;5053373;28;20180;-74
2022/01/09 08:24:34;;;;;;;0.30;0.30;;;4.50;99.90;;;;;;5052427;28;20204;-74
2022/01/09 08:26:59;;;;;;;3.63;1.67;;;4.50;99.90;;;;;;5035914;28;20211;-74
2022/01/09 08:29:25;;;;;;;0.00;0.00;;;4.50;99.90;;;;;;5053636;28;20177;-74
2022/01/09 08:31:51;;;;;;;0.17;0.17;;;4.60;99.90;;;;;;5053140;28;20196;-74
2022/01/09 08:34:17;;;;;;;0.50;0.40;;;4.60;99.90;;;;;;5053469;28;20217;-74
2022/01/09 08:36:42;;;;;;;0.10;0.10;;;4.60;99.90;;;;;;5035517;28;20208;-74
2022/01/09 08:39:10;;;;;;;0.00;0.00;;;4.70;99.90;;;;;;5053570;28;20541;-75
2022/01/09 08:41:35;;;;;;;0.10;0.10;;;4.70;99.90;;;;;;5053067;28;20184;-74
2022/01/09 08:44:01;;;;;;;1.63;1.10;;;4.70;99.90;;;;;;5053478;28;20192;-74
2022/01/09 08:46:28;;;;;;;0.00;0.00;;;4.70;99.90;;;;;;5052950;28;20884;-74
2022/01/09 08:48:53;;;;;;;0.20;0.20;;;4.70;99.90;;;;;;5053478;28;20189;-74
2022/01/09 08:51:19;;;;;;;3.83;1.43;;;4.70;99.90;;;;;;5052960;28;20199;-73
2022/01/09 08:53:50;;;;;;;5.53;1.87;;;4.70;99.90;;;;;;5053124;28;20219;-74
2022/01/09 08:56:20;;;;;;;0.70;0.47;;;4.60;99.90;;;;;;5053019;28;20196;-74
2022/01/09 08:58:46;;;;;;;0.10;0.10;;;4.60;99.90;;;;;;5053147;28;20181;-73
2022/01/09 09:01:12;;;;;;;0.60;0.60;;;4.60;99.90;;;;;;5052868;28;20181;-73
2022/01/09 09:03:41;;;;;;;1.83;1.73;;;4.60;99.90;;;;;;5052736;28;20184;-73
2022/01/09 09:06:08;;;;;;;0.87;0.87;;;4.60;99.90;;;;;;5052770;28;20642;-73
2022/01/09 09:08:34;;;;;;;1.90;0.67;;;4.70;99.90;;;;;;5052986;28;20197;-73
2022/01/09 09:10:59;;;;;;;0.30;0.30;;;4.70;99.90;;;;;;5031565;28;20182;-74
2022/01/09 09:13:25;;;;;;;0.10;0.10;;;4.70;99.90;;;;;;5043441;28;20205;-74
2022/01/09 09:15:50;;;;;;;0.10;0.10;;;4.70;99.90;;;;;;5052401;28;20626;-74
2022/01/09 09:18:16;;;;;;;0.67;0.63;;;4.80;99.90;;;;;;5052701;28;20252;-74
2022/01/09 09:20:41;;;;;;;0.50;0.50;;;4.80;99.90;;;;;;5053097;28;20185;-73
2022/01/09 09:23:07;;;;;;;0.03;0.03;;;4.90;99.90;;;;;;5052319;28;20188;-74
2022/01/09 09:25:32;;;;;;;0.93;0.93;;;4.90;99.90;;;;;;5052377;28;20267;-74
2022/01/09 09:27:58;;;;;;;0.60;0.60;;;4.90;99.90;;;;;;5049579;28;20226;-74
2022/01/09 09:30:23;;;;;;;1.93;1.73;;;4.90;99.90;;;;;;5045083;28;20585;-74
2022/01/09 09:32:49;;;;;;;1.20;0.97;;;4.90;99.90;;;;;;5031897;28;20288;-74
2022/01/09 09:35:14;;;;;;;0.23;0.23;;;4.90;99.90;;;;;;5031729;28;20218;-74
2022/01/09 09:37:40;;;;;;;1.03;0.93;;;4.90;99.90;;;;;;5032159;28;20651;-74
2022/01/09 09:40:07;;;;;;;1.13;0.93;;;4.90;99.90;;;;;;5032282;28;20665;-74
2022/01/09 09:42:33;;;;;;;0.83;0.83;;;4.90;99.90;;;;;;5032001;28;20181;-74
2022/01/09 09:45:01;;;;;;;0.77;0.77;;;5.00;99.90;;;;;;5014150;28;20288;-74
2022/01/09 09:47:28;;;;;;;0.57;0.50;;;5.10;99.90;;;;;;5032339;28;20193;-74
2022/01/09 09:49:54;;;;;;;0.60;0.60;;;5.20;99.90;;;;;;5032124;28;20667;-74
2022/01/09 09:52:20;;;;;;;0.40;0.40;;;5.30;99.90;;;;;;5031480;28;20221;-74
2022/01/09 09:54:47;;;;;;;0.47;0.47;;;5.30;99.90;;;;;;5031930;28;20525;-74
2022/01/09 09:57:13;;;;;;;1.17;1.13;;;5.30;99.90;;;;;;5031922;28;20202;-74
2022/01/09 09:59:39;;;;;;;0.77;0.40;;;5.30;99.90;;;;;;5031743;28;20177;-73
2022/01/09 10:02:14;;;;;;;0.23;0.23;;;5.30;99.90;;;;;;5031580;28;20178;-73
2022/01/09 10:05:01;;;;;;;0.67;0.67;;;5.30;99.90;;;;;;5032045;28;20643;-74
2022/01/09 10:07:28;;;;;;;1.53;1.43;;;5.50;99.90;;;;;;5046378;28;20177;-74
2022/01/09 10:09:59;;;;;;;0.00;0.00;;;5.50;99.90;;;;;;5051436;28;20189;-73
2022/01/09 10:12:30;;;;;;;3.73;1.50;;;5.50;99.90;;;;;;5038053;28;20184;-74
2022/01/09 10:14:58;;;;;;;0.10;0.10;;;5.50;99.90;;;;;;5051584;28;20173;-74
2022/01/09 10:17:26;;;;;;;0.00;0.00;;;5.40;99.90;;;;;;5051486;28;20207;-73
2022/01/09 10:20:17;;;;;;;0.10;0.10;;;5.30;99.90;;;;;;5051509;28;20648;-74
2022/01/09 10:22:44;;;;;;;0.43;0.43;;;5.30;99.90;;;;;;5051112;28;20193;-74
2022/01/09 10:25:24;;;;;;;0.00;0.00;;;5.40;99.90;;;;;;5051451;28;20177;-74
2022/01/09 10:27:54;;;;;;;0.10;0.10;;;5.40;99.90;;;;;;5051506;28;20263;-74
2022/01/09 10:30:26;;;;;;;0.30;0.30;;;5.40;99.90;;;;;;5051317;28;20243;-74
2022/01/09 10:33:03;;;;;;;0.07;0.07;;;5.30;99.90;;;;;;5050844;28;20291;-73
2022/01/09 10:35:29;;;;;;;0.40;0.40;;;5.30;99.90;;;;;;5051795;28;20212;-73
2022/01/09 10:38:11;;;;;;;3.23;2.10;;;5.30;99.90;;;;;;5033659;28;20548;-74
2022/01/09 10:40:38;;;;;;;0.50;0.50;;;5.40;99.90;;;;;;5051356;28;20172;-73
2022/01/09 10:43:14;;;;;;;0.30;0.30;;;5.40;99.90;;;;;;5051044;28;20181;-74
2022/01/09 10:45:42;;;;;;;0.27;0.27;;;5.30;99.90;;;;;;5051156;28;20219;-74
2022/01/09 10:48:12;;;;;;;1.10;1.00;;;5.20;99.90;;;;;;5050371;28;20222;-74
2022/01/09 10:50:41;;;;;;;2.67;1.13;;;5.30;99.90;;;;;;5051143;28;20177;-74
2022/01/09 10:53:17;;;;;;;1.07;1.07;;;5.30;99.90;;;;;;5050789;28;20228;-74
2022/01/09 10:55:48;;;;;;;0.37;0.37;;;5.40;99.90;;;;;;5050904;28;20207;-73
2022/01/09 10:58:21;;;;;;;3.50;1.07;;;5.30;99.90;;;;;;5051006;28;20267;-73
2022/01/09 11:01:04;;;;;;;1.00;0.90;;;5.30;99.90;;;;;;5050988;28;20181;-73
2022/01/09 11:03:30;;;;;;;1.80;1.70;;;5.20;99.90;;;;;;5050896;28;20271;-74
2022/01/09 11:05:56;;;;;;;0.57;0.30;;;5.10;99.90;;;;;;5050806;28;20235;-73
2022/01/09 11:08:21;;;;;;;2.20;1.03;;;5.10;99.90;;;;;;5050994;28;20327;-74
2022/01/09 11:10:47;;;;;;;0.67;0.67;;;5.10;99.90;;;;;;5049382;28;20181;-73
2022/01/09 11:13:15;;;;;;;1.30;1.20;;;5.20;99.90;;;;;;5040038;28;20200;-73
2022/01/09 11:16:32;;;;;;;1.30;1.20;;;5.10;99.90;;;;;;5032812;28;20707;-74
2022/01/09 11:18:27;;;;;;;1.40;1.30;;;5.10;99.90;;;;;;5050695;28;20255;-74
2022/01/09 11:20:53;;;;;;;0.57;0.30;;;5.00;99.90;;;;;;5050954;28;20201;-74
2022/01/09 11:23:21;;;;;;;4.83;2.63;;;5.10;99.90;;;;;;5050686;28;20209;-74
2022/01/09 11:25:51;;;;;;;0.07;0.07;;;4.90;99.90;;;;;;5032877;28;20212;-73
2022/01/09 11:28:25;;;;;;;0.77;0.60;;;4.80;99.90;;;;;;5050865;28;20207;-74
2022/01/09 11:31:00;;;;;;;0.10;0.10;;;4.80;99.90;;;;;;5051007;28;20675;-73
2022/01/09 11:33:50;;;;;;;0.67;0.67;;;4.80;99.90;;;;;;5050669;28;20705;-74
2022/01/09 11:36:34;;;;;;;0.33;0.33;;;4.80;99.90;;;;;;5039029;28;20759;-74
2022/01/09 11:39:17;;;;;;;1.37;0.57;;;4.90;99.90;;;;;;5050916;28;20264;-74
2022/01/09 11:41:44;;;;;;;1.40;1.20;;;5.00;99.90;;;;;;5050179;28;20243;-74
2022/01/09 11:44:12;;;;;;;0.10;0.10;;;5.10;99.90;;;;;;5050794;28;20660;-74
2022/01/09 11:47:00;;;;;;;5.43;1.00;;;5.10;99.90;;;;;;5050336;28;20278;-74
2022/01/09 11:49:28;;;;;;;0.20;0.20;;;5.00;99.90;;;;;;5050547;28;20204;-74
2022/01/09 11:51:59;;;;;;;0.20;0.20;;;5.00;99.90;;;;;;5050065;28;20694;-74
2022/01/09 11:54:25;;;;;;;0.10;0.10;;;4.90;99.90;;;;;;5050703;28;20288;-73
2022/01/09 11:57:06;;;;;;;0.00;0.00;;;4.90;99.90;;;;;;5032581;28;20235;-74
2022/01/09 11:59:38;;;;;;;20.83;3.37;;;4.90;99.90;;;;;;5034544;28;20532;-73
2022/01/09 12:02:29;;;;;;;0.67;0.67;;;5.20;99.90;;;;;;5053885;28;20185;-74
2022/01/09 12:05:03;;;;;;;2.67;1.43;;;5.60;99.90;;;;;;5054637;28;20743;-73
2022/01/09 12:07:34;;;;;;;0.20;0.20;;;5.90;99.90;;;;;;5054254;28;20185;-74
2022/01/09 12:10:26;;;;;;;0.20;0.20;;;6.30;99.90;;;;;;5036066;28;20580;-73
2022/01/09 12:12:51;;;;;;;0.30;0.30;;;6.10;99.90;;;;;;5030683;28;20593;-73
2022/01/09 12:15:37;;;;;;;3.30;1.30;;;5.80;99.90;;;;;;5053911;28;20193;-74
2022/01/09 12:18:04;;;;;;;0.10;0.10;;;5.70;99.90;;;;;;5053971;28;20192;-73
2022/01/09 12:20:37;;;;;;;0.57;0.40;;;5.80;99.90;;;;;;5053884;28;20176;-74
2022/01/09 12:23:06;;;;;;;2.93;1.07;;;5.80;99.90;;;;;;5053619;28;20196;-73
2022/01/09 12:25:35;;;;;;;3.70;1.60;;;5.70;99.90;;;;;;5053283;28;20203;-74
2022/01/09 12:28:03;;;;;;;0.20;0.20;;;5.70;99.90;;;;;;5037147;28;20215;-73
2022/01/09 12:30:41;;;;;;;3.70;3.40;;;5.70;99.90;;;;;;5053653;28;20181;-73
2022/01/09 12:33:31;;;;;;;1.37;1.27;;;5.80;99.90;;;;;;5035495;28;20567;-74
2022/01/09 12:36:04;;;;;;;4.63;0.87;;;5.90;99.90;;;;;;5042090;28;20311;-73
2022/01/09 12:38:36;;;;;;;7.43;2.33;;;5.90;99.90;;;;;;5035387;28;20185;-74
2022/01/09 12:41:04;;;;;;;0.10;0.10;;;5.80;99.90;;;;;;5035525;28;20218;-73
2022/01/09 12:43:32;;;;;;;0.20;0.20;;;5.80;99.90;;;;;;5053007;28;20169;-74
2022/01/09 12:45:58;;;;;;;0.40;0.40;;;5.80;99.90;;;;;;5080513;22;20609;-74
2022/01/09 12:48:27;;;;;;;0.00;0.00;;;5.80;99.90;;;;;;5077895;28;20173;-74
2022/01/09 12:50:54;;;;;;;0.43;0.43;;;5.80;99.90;;;;;;5058243;28;20204;-74
2022/01/09 12:53:29;;;;;;;0.00;0.00;;;5.90;99.90;;;;;;5057515;28;20207;-74
2022/01/09 12:56:05;;;;;;;8.93;1.33;;;5.90;99.90;;;;;;5058196;28;20204;-74
2022/01/09 12:58:39;;;;;;;0.27;0.27;;;5.90;99.90;;;;;;5043637;28;20173;-74
2022/01/09 13:01:26;;;;;;;0.37;0.37;;;6.00;99.90;;;;;;5055687;28;20205;-74
2022/01/09 13:03:54;;;;;;;1.43;1.33;;;5.90;99.90;;;;;;5055554;28;20181;-74